»·PEaware :: SWA102 KABQ-KPHX

SWA102 :: KABQ-KPHX

FLIGHT INFORMATION

Flight Status: Arrived
Operator:
Southwest Airlines
More flights by this operator :: More flights under this callsign
Pilot: Cole F. (14495)
Aircraft: BOEING 737-200
(B732)
More flights by this aircraft type
Origin: KABQ Albuquerque Intl Sunport
United States
Destination: KPHX Phoenix Sky Harbor Intl
United States
More flights between these airports :: More routes between these airports
Route: +ABQ3 ZUN BUNTR3
File this flight plan on PilotEdge
Remarks:
Altitude:
(Current/Filed)
30,000ft
Speed:
(Current/Filed)
443kts
Departed: 08-May-18 07:17 AM
Arrived: 08-May-18 08:17 AM
Distance/Time
Traveled:
284nm/1:00
Distance/Time
To Go:
Arrived

Flight Plot

Page will automatically refresh every two minutes.

Flight plan parsing failed; only flown route is shown


Map Options




Map Legend


Flown Route
Filed Route
Departure Airport
Arrival Airport
Navaid (VOR, NDB)
Fix

Horizontal Profiles

Position Reports

Time Latitude Longitude Heading Altitude Ground
Speed
08-May-18 06:44 35.047770 -106.615702 180 5363ft 0kts
08-May-18 06:45 35.047770 -106.615702 180 5363ft 0kts
08-May-18 06:46 35.047770 -106.615702 180 5363ft 0kts
08-May-18 06:47 35.047770 -106.615702 180 5363ft 0kts
08-May-18 06:48 35.047770 -106.615702 180 5363ft 0kts
08-May-18 06:49 35.047770 -106.615702 180 5363ft 0kts
08-May-18 06:50 35.047770 -106.615702 180 5363ft 0kts
08-May-18 06:51 35.047770 -106.615702 180 5363ft 0kts
08-May-18 06:52 35.047770 -106.615702 180 5363ft 0kts
08-May-18 06:53 35.047770 -106.615702 180 5363ft 0kts
08-May-18 06:54 35.047770 -106.615702 180 5363ft 0kts
08-May-18 06:55 35.047770 -106.615702 180 5363ft 0kts
08-May-18 06:56 35.047770 -106.615702 180 5363ft 0kts
08-May-18 06:57 35.047770 -106.615702 180 5363ft 0kts
08-May-18 06:58 35.047770 -106.615702 180 5363ft 0kts
08-May-18 06:59 35.047770 -106.615702 180 5363ft 0kts
08-May-18 07:00 35.047770 -106.615702 180 5363ft 0kts
08-May-18 07:01 35.047770 -106.615702 180 5363ft 0kts
08-May-18 07:02 35.047770 -106.615702 180 5363ft 0kts
08-May-18 07:03 35.047770 -106.615702 180 5363ft 0kts
08-May-18 07:04 35.047770 -106.615702 180 5363ft 0kts
08-May-18 07:05 35.047770 -106.615702 180 5363ft 0kts
08-May-18 07:06 35.047770 -106.615702 180 5363ft 0kts
08-May-18 07:07 35.047818 -106.615701 180 5363ft 2kts
08-May-18 07:08 35.048336 -106.615798 122 5363ft 2kts
08-May-18 07:09 35.048370 -106.616009 88 5363ft 0kts
08-May-18 07:10 35.048370 -106.616006 88 5363ft 0kts
08-May-18 07:11 35.048352 -106.613962 90 5363ft 7kts
08-May-18 07:12 35.046022 -106.613227 204 5363ft 10kts
08-May-18 07:13 35.045540 -106.616402 270 5363ft 10kts
08-May-18 07:14 35.045579 -106.620536 270 5363ft 13kts
08-May-18 07:15 35.045275 -106.621378 188 5363ft 0kts
08-May-18 07:16 35.044347 -106.620650 89 5363ft 4kts
08-May-18 07:17 35.044259 -106.602551 89 5363ft 150kts
08-May-18 07:18 35.053093 -106.545482 34 7254ft 195kts
08-May-18 07:19 35.109389 -106.567220 299 8551ft 287kts
08-May-18 07:20 35.150090 -106.654508 299 10531ft 318kts
08-May-18 07:21 35.195603 -106.749504 299 12777ft 329kts
08-May-18 07:22 35.236914 -106.851594 290 14629ft 344kts
08-May-18 07:23 35.251972 -106.966304 266 16885ft 334kts
08-May-18 07:24 35.244804 -107.079271 265 18908ft 340kts
08-May-18 07:25 35.232127 -107.195076 263 20659ft 348kts
08-May-18 07:26 35.217552 -107.313276 263 22177ft 356kts
08-May-18 07:27 35.202139 -107.434179 263 23557ft 363kts
08-May-18 07:28 35.186190 -107.557205 263 24823ft 369kts
08-May-18 07:29 35.169703 -107.681735 262 25944ft 376kts
08-May-18 07:30 35.152655 -107.808714 262 26996ft 382kts
08-May-18 07:31 35.135586 -107.937283 263 27935ft 387kts
08-May-18 07:32 35.118506 -108.064962 263 29178ft 382kts
08-May-18 07:33 35.101137 -108.193463 263 29954ft 386kts
08-May-18 07:34 35.083269 -108.324379 263 30328ft 400kts
08-May-18 07:35 35.064526 -108.461529 263 30326ft 419kts
08-May-18 07:36 35.044927 -108.603302 263 30320ft 429kts
08-May-18 07:37 35.024613 -108.745881 262 30297ft 435kts
08-May-18 07:38 35.004430 -108.888084 262 30293ft 438kts
08-May-18 07:39 34.983772 -109.033193 262 30292ft 434kts
08-May-18 07:40 34.961910 -109.177045 253 30264ft 435kts
08-May-18 07:40 34.911102 -109.283866 241 30266ft 438kts
08-May-18 07:41 34.848735 -109.408002 248 30242ft 432kts
08-May-18 07:42 34.855874 -109.545354 273 30251ft 417kts
08-May-18 07:43 34.800196 -109.666732 229 30259ft 433kts
08-May-18 07:44 34.734353 -109.785243 247 30263ft 425kts
08-May-18 07:45 34.684247 -109.916637 248 30268ft 434kts
08-May-18 07:46 34.633914 -110.050839 248 30329ft 440kts
08-May-18 07:47 34.582631 -110.187343 248 30319ft 446kts
08-May-18 07:49 34.530831 -110.324726 248 30318ft 451kts
08-May-18 07:50 34.478466 -110.463118 248 30316ft 454kts
08-May-18 07:51 34.425686 -110.601954 248 30317ft 456kts
08-May-18 07:52 34.372303 -110.741159 247 30314ft 454kts
08-May-18 07:53 34.294935 -110.858617 224 30238ft 456kts
08-May-18 07:54 34.216086 -110.973116 236 30232ft 442kts
08-May-18 07:55 34.137225 -111.084146 231 29635ft 425kts
08-May-18 07:56 34.058206 -111.186277 229 28066ft 413kts
08-May-18 07:57 33.980728 -111.284703 229 26438ft 399kts
08-May-18 07:58 33.906476 -111.378314 228 24613ft 377kts
08-May-18 07:59 33.836006 -111.465606 228 23027ft 355kts
08-May-18 08:00 33.777656 -111.557236 235 21353ft 338kts
08-May-18 08:01 33.722906 -111.646217 235 19666ft 327kts
08-May-18 08:02 33.669749 -111.732900 235 17994ft 319kts
08-May-18 08:03 33.617514 -111.818611 235 16118ft 318kts
08-May-18 08:04 33.566031 -111.903733 235 14356ft 313kts
08-May-18 08:05 33.553005 -111.997936 270 13655ft 286kts
08-May-18 08:06 33.553833 -112.094420 270 11726ft 287kts
08-May-18 08:07 33.554790 -112.190072 270 10087ft 280kts
08-May-18 08:08 33.555481 -112.281728 270 8482ft 277kts
08-May-18 08:09 33.522420 -112.353671 188 7057ft 265kts
08-May-18 08:10 33.454394 -112.337580 137 5648ft 252kts
08-May-18 08:11 33.429307 -112.263238 91 4267ft 230kts
08-May-18 08:12 33.428825 -112.200585 90 3945ft 141kts
08-May-18 08:13 33.428864 -112.151716 90 3220ft 150kts
08-May-18 08:14 33.428869 -112.103475 90 2409ft 140kts
08-May-18 08:15 33.428768 -112.056764 90 1679ft 138kts
08-May-18 08:16 33.428852 -112.013405 89 1143ft 86kts
08-May-18 08:17 33.429729 -112.004428 57 1143ft 0kts
08-May-18 08:18 33.430802 -112.003208 358 1143ft 12kts
08-May-18 08:19 33.432161 -112.002988 274 1143ft 11kts
08-May-18 08:20 33.433391 -111.999954 35 1143ft 10kts

Navigation Log

Ident Type
Flight plan parsing failed, navigation log unavailable